RYR2854 EBCI-LZIB
Flight info
| Callsign | RYR2854 |
|---|---|
| Flight time | 1h 33m |
| Altitude | 37000 |
| Route | SOPOK Y863 OGLOR DCT EMGOD DCT BOMBI DCT KOMIB L984 KULOK Z715 PEROX DCT ABKIS Z715 PIKIB L620 OMELO DCT VLM DCT BNO M748 BERVA |
| Aircraft | B738/M-SDE2E3FGHIRWXY/LB1 |
Departure
| Time | 2026-05-06 08:20 |
|---|---|
| Airport | Brussels South Charleroi Airport (EBCI) |
Arrival
| Time | 2026-05-06 09:53 |
|---|---|
| Airport | M. R. Štefánik Airport (LZIB) |
| Time | Latitude | Longitude | Altitude | Speed | Heading |
|---|---|---|---|---|---|
| 2026-05-06 08:11 | 50.46746 | 4.46698 | 578 ft | 0 kts | 335° |
| 2026-05-06 08:13 | 50.46740 | 4.46702 | 579 ft | 2 kts | 335° |
| 2026-05-06 08:13 | 50.46722 | 4.46715 | 578 ft | 3 kts | 337° |
| 2026-05-06 08:14 | 50.46703 | 4.46727 | 578 ft | 3 kts | 338° |
| 2026-05-06 08:14 | 50.46691 | 4.46735 | 578 ft | 1 kts | 337° |
| 2026-05-06 08:14 | 50.46688 | 4.46737 | 578 ft | 0 kts | 337° |
| 2026-05-06 08:16 | 50.46697 | 4.46736 | 578 ft | 4 kts | 0° |
| 2026-05-06 08:17 | 50.46708 | 4.46769 | 577 ft | 4 kts | 103° |
| 2026-05-06 08:17 | 50.46704 | 4.46778 | 577 ft | 0 kts | 134° |
| 2026-05-06 08:19 | 50.46681 | 4.46789 | 581 ft | 16 kts | 173° |
| 2026-05-06 08:19 | 50.46581 | 4.46820 | 583 ft | 15 kts | 130° |
| 2026-05-06 08:19 | 50.46493 | 4.46889 | 582 ft | 15 kts | 181° |
| 2026-05-06 08:20 | 50.46396 | 4.46700 | 579 ft | 55 kts | 245° |
| 2026-05-06 08:20 | 50.46118 | 4.45730 | 593 ft | 137 kts | 246° |
| 2026-05-06 08:20 | 50.45779 | 4.44179 | 1180 ft | 155 kts | 250° |
| 2026-05-06 08:20 | 50.45351 | 4.42539 | 1947 ft | 168 kts | 260° |
| 2026-05-06 08:21 | 50.45193 | 4.40736 | 2767 ft | 166 kts | 256° |
| 2026-05-06 08:21 | 50.44636 | 4.39152 | 3413 ft | 171 kts | 242° |
| 2026-05-06 08:21 | 50.44111 | 4.37320 | 3717 ft | 198 kts | 247° |
| 2026-05-06 08:21 | 50.43474 | 4.35220 | 3973 ft | 226 kts | 243° |
| 2026-05-06 08:22 | 50.42350 | 4.33395 | 4289 ft | 247 kts | 205° |
| 2026-05-06 08:22 | 50.40643 | 4.33049 | 4812 ft | 255 kts | 166° |
| 2026-05-06 08:22 | 50.39047 | 4.34366 | 5144 ft | 270 kts | 132° |
| 2026-05-06 08:22 | 50.38070 | 4.36871 | 5910 ft | 270 kts | 102° |
| 2026-05-06 08:23 | 50.37945 | 4.39756 | 6853 ft | 268 kts | 82° |
| 2026-05-06 08:23 | 50.38224 | 4.42698 | 7623 ft | 275 kts | 78° |
| 2026-05-06 08:23 | 50.38596 | 4.45678 | 8404 ft | 281 kts | 77° |
| 2026-05-06 08:23 | 50.38981 | 4.48707 | 9220 ft | 285 kts | 78° |
| 2026-05-06 08:24 | 50.39357 | 4.51776 | 10065 ft | 288 kts | 78° |
| 2026-05-06 08:24 | 50.39721 | 4.54877 | 10588 ft | 303 kts | 79° |
| 2026-05-06 08:24 | 50.40104 | 4.58269 | 10777 ft | 328 kts | 80° |
| 2026-05-06 08:24 | 50.40507 | 4.61978 | 10968 ft | 352 kts | 81° |
| 2026-05-06 08:25 | 50.40911 | 4.65800 | 11377 ft | 366 kts | 81° |
| 2026-05-06 08:25 | 50.41332 | 4.69833 | 12013 ft | 373 kts | 81° |
| 2026-05-06 08:25 | 50.41752 | 4.73883 | 12675 ft | 379 kts | 81° |
| 2026-05-06 08:25 | 50.42170 | 4.77939 | 13325 ft | 385 kts | 81° |
| 2026-05-06 08:26 | 50.42598 | 4.82104 | 14020 ft | 388 kts | 81° |
| 2026-05-06 08:26 | 50.43028 | 4.86301 | 14739 ft | 391 kts | 81° |
| 2026-05-06 08:26 | 50.43461 | 4.90530 | 15399 ft | 395 kts | 81° |
| 2026-05-06 08:26 | 50.43897 | 4.94812 | 16038 ft | 400 kts | 82° |
| 2026-05-06 08:27 | 50.44336 | 4.99143 | 16671 ft | 403 kts | 82° |
| 2026-05-06 08:27 | 50.44776 | 5.03504 | 17278 ft | 407 kts | 82° |
| 2026-05-06 08:27 | 50.45217 | 5.07906 | 17890 ft | 410 kts | 82° |
| 2026-05-06 08:27 | 50.45661 | 5.12346 | 18460 ft | 414 kts | 82° |
| 2026-05-06 08:28 | 50.46106 | 5.16829 | 19006 ft | 418 kts | 82° |
| 2026-05-06 08:28 | 50.46554 | 5.21361 | 19549 ft | 421 kts | 82° |
| 2026-05-06 08:28 | 50.47004 | 5.25927 | 20104 ft | 424 kts | 82° |
| 2026-05-06 08:28 | 50.47456 | 5.30515 | 20632 ft | 427 kts | 82° |
| 2026-05-06 08:29 | 50.47890 | 5.35142 | 21099 ft | 431 kts | 86° |
| 2026-05-06 08:29 | 50.47681 | 5.39816 | 21519 ft | 431 kts | 106° |
| 2026-05-06 08:29 | 50.46577 | 5.44154 | 22017 ft | 429 kts | 122° |
| 2026-05-06 08:29 | 50.44744 | 5.47816 | 22466 ft | 427 kts | 137° |
| 2026-05-06 08:30 | 50.42622 | 5.51082 | 22923 ft | 429 kts | 138° |
| 2026-05-06 08:30 | 50.40451 | 5.54329 | 23324 ft | 433 kts | 139° |
| 2026-05-06 08:30 | 50.38269 | 5.57595 | 23723 ft | 436 kts | 139° |
| 2026-05-06 08:30 | 50.36078 | 5.60911 | 24130 ft | 439 kts | 138° |
| 2026-05-06 08:31 | 50.33878 | 5.64271 | 24529 ft | 442 kts | 138° |
| 2026-05-06 08:31 | 50.31678 | 5.67647 | 24946 ft | 444 kts | 138° |
| 2026-05-06 08:31 | 50.29469 | 5.71040 | 25329 ft | 446 kts | 138° |
| 2026-05-06 08:31 | 50.27331 | 5.74592 | 25688 ft | 451 kts | 130° |
| 2026-05-06 08:32 | 50.25583 | 5.78692 | 26072 ft | 457 kts | 121° |
| 2026-05-06 08:32 | 50.24245 | 5.83210 | 26420 ft | 462 kts | 111° |
| 2026-05-06 08:32 | 50.23354 | 5.88069 | 26766 ft | 466 kts | 106° |
| 2026-05-06 08:32 | 50.22581 | 5.92984 | 27105 ft | 468 kts | 105° |
| 2026-05-06 08:33 | 50.21805 | 5.97942 | 27438 ft | 470 kts | 106° |
| 2026-05-06 08:33 | 50.21001 | 6.02875 | 27753 ft | 471 kts | 107° |
| 2026-05-06 08:33 | 50.20164 | 6.07837 | 28048 ft | 473 kts | 107° |
| 2026-05-06 08:33 | 50.19315 | 6.12798 | 28352 ft | 474 kts | 107° |
| 2026-05-06 08:34 | 50.18620 | 6.17833 | 28720 ft | 476 kts | 99° |
| 2026-05-06 08:34 | 50.18524 | 6.26401 | 29486 ft | 475 kts | 85° |
| 2026-05-06 08:34 | 50.19007 | 6.33164 | 30061 ft | 472 kts | 85° |
| 2026-05-06 08:35 | 50.19380 | 6.38248 | 30435 ft | 471 kts | 85° |
| 2026-05-06 08:35 | 50.19619 | 6.41668 | 30661 ft | 471 kts | 85° |
| 2026-05-06 08:35 | 50.19951 | 6.46753 | 30978 ft | 471 kts | 86° |
| 2026-05-06 08:35 | 50.20363 | 6.53488 | 31441 ft | 469 kts | 86° |
| 2026-05-06 08:36 | 50.20568 | 6.56901 | 31656 ft | 469 kts | 86° |
| 2026-05-06 08:36 | 50.20875 | 6.61973 | 31969 ft | 468 kts | 86° |
| 2026-05-06 08:36 | 50.21064 | 6.67045 | 32252 ft | 467 kts | 91° |
| 2026-05-06 08:36 | 50.21016 | 6.72096 | 32593 ft | 465 kts | 93° |
| 2026-05-06 08:37 | 50.20898 | 6.77123 | 32918 ft | 464 kts | 94° |
| 2026-05-06 08:37 | 50.20762 | 6.82139 | 33172 ft | 464 kts | 94° |
| 2026-05-06 08:37 | 50.20631 | 6.87195 | 33401 ft | 465 kts | 94° |
| 2026-05-06 08:37 | 50.20512 | 6.92236 | 33670 ft | 464 kts | 93° |
| 2026-05-06 08:38 | 50.20402 | 6.97257 | 33946 ft | 464 kts | 94° |
| 2026-05-06 08:38 | 50.20296 | 7.02304 | 34188 ft | 464 kts | 93° |
| 2026-05-06 08:38 | 50.20192 | 7.07338 | 34387 ft | 465 kts | 93° |
| 2026-05-06 08:38 | 50.20085 | 7.12392 | 34612 ft | 465 kts | 94° |
| 2026-05-06 08:39 | 50.19973 | 7.17425 | 34840 ft | 466 kts | 94° |
| 2026-05-06 08:39 | 50.19855 | 7.22486 | 35016 ft | 467 kts | 94° |
| 2026-05-06 08:39 | 50.19736 | 7.27561 | 35198 ft | 468 kts | 94° |
| 2026-05-06 08:39 | 50.19618 | 7.32636 | 35420 ft | 468 kts | 95° |
| 2026-05-06 08:40 | 50.19324 | 7.37694 | 35613 ft | 467 kts | 99° |
| 2026-05-06 08:40 | 50.18901 | 7.42719 | 35816 ft | 467 kts | 100° |
| 2026-05-06 08:40 | 50.18428 | 7.47727 | 36003 ft | 467 kts | 101° |
| 2026-05-06 08:40 | 50.17942 | 7.52734 | 36178 ft | 468 kts | 101° |
| 2026-05-06 08:41 | 50.17458 | 7.57761 | 36366 ft | 468 kts | 100° |
| 2026-05-06 08:41 | 50.16984 | 7.62795 | 36507 ft | 469 kts | 100° |
| 2026-05-06 08:41 | 50.16521 | 7.67759 | 36692 ft | 469 kts | 101° |
| 2026-05-06 08:41 | 50.16059 | 7.72780 | 37040 ft | 465 kts | 100° |
| 2026-05-06 08:42 | 50.15599 | 7.77802 | 37427 ft | 460 kts | 100° |
| 2026-05-06 08:42 | 50.15149 | 7.82717 | 37673 ft | 458 kts | 100° |
| 2026-05-06 08:42 | 50.14702 | 7.87571 | 37776 ft | 459 kts | 100° |
| 2026-05-06 08:42 | 50.14242 | 7.92512 | 37911 ft | 460 kts | 100° |
| 2026-05-06 08:43 | 50.13779 | 7.97454 | 38008 ft | 461 kts | 100° |
| 2026-05-06 08:43 | 50.13316 | 8.02391 | 38150 ft | 461 kts | 100° |
| 2026-05-06 08:43 | 50.12850 | 8.07332 | 38338 ft | 460 kts | 99° |
| 2026-05-06 08:43 | 50.12382 | 8.12266 | 38459 ft | 460 kts | 100° |
| 2026-05-06 08:44 | 50.11910 | 8.17202 | 38557 ft | 461 kts | 100° |
| 2026-05-06 08:44 | 50.11436 | 8.22135 | 38690 ft | 461 kts | 100° |
| 2026-05-06 08:44 | 50.10962 | 8.27065 | 38771 ft | 459 kts | 101° |
| 2026-05-06 08:45 | 50.10007 | 8.36908 | 38805 ft | 460 kts | 100° |
| 2026-05-06 08:45 | 50.09038 | 8.46792 | 38794 ft | 462 kts | 100° |
| 2026-05-06 08:46 | 50.08056 | 8.56714 | 38784 ft | 464 kts | 101° |
| 2026-05-06 08:46 | 50.07059 | 8.66652 | 38792 ft | 465 kts | 101° |
| 2026-05-06 08:47 | 50.06060 | 8.76605 | 38789 ft | 466 kts | 100° |
| 2026-05-06 08:47 | 50.05699 | 8.86693 | 38769 ft | 470 kts | 90° |
| 2026-05-06 08:48 | 50.05935 | 8.96849 | 38771 ft | 470 kts | 90° |
| 2026-05-06 08:48 | 50.06161 | 9.07009 | 38779 ft | 469 kts | 90° |
| 2026-05-06 08:49 | 50.06330 | 9.17128 | 38763 ft | 468 kts | 90° |
| 2026-05-06 08:49 | 50.06468 | 9.27242 | 38774 ft | 467 kts | 91° |
| 2026-05-06 08:50 | 50.06595 | 9.37340 | 38771 ft | 467 kts | 91° |
| 2026-05-06 08:50 | 50.06713 | 9.47476 | 38781 ft | 467 kts | 91° |
| 2026-05-06 08:51 | 50.06823 | 9.57578 | 38764 ft | 467 kts | 91° |
| 2026-05-06 08:51 | 50.06923 | 9.67702 | 38776 ft | 467 kts | 92° |
| 2026-05-06 08:52 | 50.07016 | 9.77806 | 38778 ft | 468 kts | 91° |
| 2026-05-06 08:52 | 50.07099 | 9.87892 | 38797 ft | 469 kts | 91° |
| 2026-05-06 08:53 | 50.07172 | 9.98110 | 38779 ft | 470 kts | 92° |
| 2026-05-06 08:53 | 50.07234 | 10.08293 | 38798 ft | 471 kts | 91° |
| 2026-05-06 08:54 | 50.07219 | 10.18410 | 38784 ft | 470 kts | 95° |
| 2026-05-06 08:54 | 50.06731 | 10.28598 | 38799 ft | 469 kts | 98° |
| 2026-05-06 08:55 | 50.06101 | 10.38724 | 38788 ft | 470 kts | 98° |
| 2026-05-06 08:55 | 50.05492 | 10.48780 | 38801 ft | 470 kts | 98° |
| 2026-05-06 08:56 | 50.04904 | 10.58916 | 38801 ft | 471 kts | 98° |
| 2026-05-06 08:56 | 50.04318 | 10.69055 | 38813 ft | 470 kts | 97° |
| 2026-05-06 08:57 | 50.03728 | 10.79178 | 38807 ft | 470 kts | 98° |
| 2026-05-06 08:57 | 50.03128 | 10.89295 | 38810 ft | 469 kts | 98° |
| 2026-05-06 08:58 | 50.02516 | 10.99459 | 38818 ft | 469 kts | 98° |
| 2026-05-06 08:58 | 50.01899 | 11.09548 | 38807 ft | 468 kts | 98° |
| 2026-05-06 08:59 | 50.01273 | 11.19640 | 38786 ft | 469 kts | 98° |
| 2026-05-06 08:59 | 50.00641 | 11.29649 | 38795 ft | 468 kts | 98° |
| 2026-05-06 09:00 | 49.99999 | 11.39715 | 38796 ft | 468 kts | 98° |
| 2026-05-06 09:00 | 49.99347 | 11.49774 | 38798 ft | 468 kts | 98° |
| 2026-05-06 09:01 | 49.98687 | 11.59824 | 38817 ft | 468 kts | 98° |
| 2026-05-06 09:01 | 49.98017 | 11.69917 | 38786 ft | 470 kts | 98° |
| 2026-05-06 09:02 | 49.97334 | 11.80021 | 38799 ft | 471 kts | 99° |
| 2026-05-06 09:02 | 49.96639 | 11.90149 | 38822 ft | 471 kts | 98° |
| 2026-05-06 09:03 | 49.95938 | 12.00285 | 38818 ft | 473 kts | 99° |
| 2026-05-06 09:03 | 49.95226 | 12.10461 | 38795 ft | 475 kts | 99° |
| 2026-05-06 09:04 | 49.94503 | 12.20658 | 38799 ft | 475 kts | 99° |
| 2026-05-06 09:04 | 49.93771 | 12.30861 | 38800 ft | 476 kts | 99° |
| 2026-05-06 09:05 | 49.93027 | 12.41070 | 38820 ft | 476 kts | 99° |
| 2026-05-06 09:05 | 49.92278 | 12.51256 | 38805 ft | 476 kts | 99° |
| 2026-05-06 09:06 | 49.91517 | 12.61447 | 38821 ft | 474 kts | 100° |
| 2026-05-06 09:06 | 49.90753 | 12.71585 | 38825 ft | 473 kts | 99° |
| 2026-05-06 09:07 | 49.89979 | 12.81713 | 38820 ft | 472 kts | 100° |
| 2026-05-06 09:07 | 49.89197 | 12.91822 | 38818 ft | 471 kts | 99° |
| 2026-05-06 09:08 | 49.88410 | 13.01894 | 38831 ft | 470 kts | 100° |
| 2026-05-06 09:08 | 49.87619 | 13.11927 | 38829 ft | 469 kts | 100° |
| 2026-05-06 09:09 | 49.86816 | 13.21964 | 38840 ft | 468 kts | 100° |
| 2026-05-06 09:09 | 49.86005 | 13.31970 | 38841 ft | 468 kts | 101° |
| 2026-05-06 09:10 | 49.85188 | 13.41955 | 38818 ft | 468 kts | 101° |
| 2026-05-06 09:10 | 49.84360 | 13.51966 | 38824 ft | 468 kts | 101° |
| 2026-05-06 09:11 | 49.83527 | 13.61938 | 38841 ft | 467 kts | 101° |
| 2026-05-06 09:11 | 49.82685 | 13.71925 | 38829 ft | 467 kts | 101° |
| 2026-05-06 09:12 | 49.81836 | 13.81885 | 38841 ft | 467 kts | 101° |
| 2026-05-06 09:12 | 49.80977 | 13.91849 | 38838 ft | 467 kts | 101° |
| 2026-05-06 09:13 | 49.80108 | 14.01844 | 38841 ft | 468 kts | 101° |
| 2026-05-06 09:13 | 49.79230 | 14.11812 | 38829 ft | 469 kts | 101° |
| 2026-05-06 09:14 | 49.78338 | 14.21825 | 38845 ft | 469 kts | 101° |
| 2026-05-06 09:14 | 49.77440 | 14.31824 | 38821 ft | 470 kts | 101° |
| 2026-05-06 09:15 | 49.76531 | 14.41848 | 38834 ft | 470 kts | 101° |
| 2026-05-06 09:15 | 49.75619 | 14.51801 | 38836 ft | 471 kts | 101° |
| 2026-05-06 09:16 | 49.74690 | 14.61834 | 38835 ft | 471 kts | 102° |
| 2026-05-06 09:16 | 49.73751 | 14.71863 | 38841 ft | 471 kts | 101° |
| 2026-05-06 09:17 | 49.72804 | 14.81887 | 38823 ft | 472 kts | 101° |
| 2026-05-06 09:17 | 49.71839 | 14.91923 | 38818 ft | 472 kts | 102° |
| 2026-05-06 09:18 | 49.70876 | 15.01948 | 38849 ft | 471 kts | 102° |
| 2026-05-06 09:18 | 49.68985 | 15.11474 | 38790 ft | 460 kts | 120° |
| 2026-05-06 09:19 | 49.66081 | 15.20192 | 38827 ft | 456 kts | 122° |
| 2026-05-06 09:19 | 49.63609 | 15.27455 | 38827 ft | 456 kts | 122° |
| 2026-05-06 09:20 | 49.60683 | 15.36132 | 38832 ft | 457 kts | 122° |
| 2026-05-06 09:20 | 49.57786 | 15.44774 | 38824 ft | 456 kts | 122° |
| 2026-05-06 09:21 | 49.54875 | 15.53448 | 38842 ft | 456 kts | 122° |
| 2026-05-06 09:21 | 49.51959 | 15.62108 | 38833 ft | 456 kts | 122° |
| 2026-05-06 09:22 | 49.49036 | 15.70761 | 38846 ft | 455 kts | 122° |
| 2026-05-06 09:22 | 49.46110 | 15.79396 | 38845 ft | 456 kts | 122° |
| 2026-05-06 09:23 | 49.43172 | 15.88034 | 38847 ft | 456 kts | 122° |
| 2026-05-06 09:23 | 49.40228 | 15.96666 | 38847 ft | 456 kts | 123° |
| 2026-05-06 09:23 | 49.38735 | 16.01019 | 38352 ft | 464 kts | 122° |
| 2026-05-06 09:24 | 49.37236 | 16.05388 | 37827 ft | 461 kts | 122° |
| 2026-05-06 09:24 | 49.35744 | 16.09726 | 37233 ft | 461 kts | 122° |
| 2026-05-06 09:24 | 49.34249 | 16.14071 | 36649 ft | 459 kts | 123° |
| 2026-05-06 09:24 | 49.32757 | 16.18402 | 36056 ft | 459 kts | 122° |
| 2026-05-06 09:25 | 49.31270 | 16.22706 | 35397 ft | 459 kts | 122° |
| 2026-05-06 09:25 | 49.29772 | 16.27034 | 34724 ft | 460 kts | 122° |
| 2026-05-06 09:25 | 49.28269 | 16.31369 | 34032 ft | 461 kts | 122° |
| 2026-05-06 09:25 | 49.26758 | 16.35720 | 33352 ft | 463 kts | 123° |
| 2026-05-06 09:26 | 49.25239 | 16.40089 | 32622 ft | 464 kts | 122° |
| 2026-05-06 09:26 | 49.23717 | 16.44456 | 31885 ft | 466 kts | 122° |
| 2026-05-06 09:26 | 49.22191 | 16.48825 | 31114 ft | 468 kts | 122° |
| 2026-05-06 09:26 | 49.20651 | 16.53224 | 30317 ft | 469 kts | 122° |
| 2026-05-06 09:27 | 49.19104 | 16.57634 | 29490 ft | 471 kts | 122° |
| 2026-05-06 09:27 | 49.17563 | 16.62032 | 28856 ft | 468 kts | 122° |
| 2026-05-06 09:27 | 49.16033 | 16.66390 | 28252 ft | 463 kts | 123° |
| 2026-05-06 09:27 | 49.14303 | 16.70483 | 27638 ft | 454 kts | 131° |
| 2026-05-06 09:28 | 49.12231 | 16.74054 | 27032 ft | 446 kts | 137° |
| 2026-05-06 09:28 | 49.10092 | 16.77449 | 26441 ft | 442 kts | 138° |
| 2026-05-06 09:28 | 49.07963 | 16.80798 | 25851 ft | 438 kts | 138° |
| 2026-05-06 09:28 | 49.05851 | 16.84129 | 25267 ft | 435 kts | 137° |
| 2026-05-06 09:29 | 49.03764 | 16.87439 | 24700 ft | 431 kts | 137° |
| 2026-05-06 09:29 | 49.01696 | 16.90732 | 24124 ft | 428 kts | 137° |
| 2026-05-06 09:29 | 48.99648 | 16.94001 | 23553 ft | 425 kts | 137° |
| 2026-05-06 09:29 | 48.97618 | 16.97243 | 22987 ft | 421 kts | 137° |
| 2026-05-06 09:30 | 48.95610 | 17.00446 | 22432 ft | 418 kts | 137° |
| 2026-05-06 09:30 | 48.93605 | 17.03640 | 21870 ft | 414 kts | 137° |
| 2026-05-06 09:30 | 48.91625 | 17.06787 | 21316 ft | 411 kts | 137° |
| 2026-05-06 09:30 | 48.89657 | 17.09911 | 20760 ft | 408 kts | 136° |
| 2026-05-06 09:31 | 48.87726 | 17.12978 | 20221 ft | 405 kts | 136° |
| 2026-05-06 09:31 | 48.85788 | 17.16053 | 19671 ft | 401 kts | 136° |
| 2026-05-06 09:31 | 48.83843 | 17.19142 | 19123 ft | 398 kts | 136° |
| 2026-05-06 09:31 | 48.81949 | 17.22167 | 18588 ft | 395 kts | 136° |
| 2026-05-06 09:32 | 48.80088 | 17.25140 | 18058 ft | 392 kts | 136° |
| 2026-05-06 09:32 | 48.78212 | 17.28129 | 17530 ft | 389 kts | 136° |
| 2026-05-06 09:32 | 48.76325 | 17.31126 | 16991 ft | 387 kts | 136° |
| 2026-05-06 09:32 | 48.74497 | 17.34028 | 16469 ft | 384 kts | 136° |
| 2026-05-06 09:33 | 48.72661 | 17.36943 | 15946 ft | 382 kts | 136° |
| 2026-05-06 09:33 | 48.70828 | 17.39847 | 15423 ft | 379 kts | 136° |
| 2026-05-06 09:33 | 48.69014 | 17.42722 | 14903 ft | 377 kts | 136° |
| 2026-05-06 09:33 | 48.67214 | 17.45571 | 14388 ft | 374 kts | 136° |
| 2026-05-06 09:34 | 48.65420 | 17.48408 | 13877 ft | 372 kts | 137° |
| 2026-05-06 09:34 | 48.63634 | 17.51230 | 13373 ft | 369 kts | 137° |
| 2026-05-06 09:34 | 48.61863 | 17.54025 | 12873 ft | 367 kts | 137° |
| 2026-05-06 09:34 | 48.60098 | 17.56732 | 12691 ft | 358 kts | 138° |
| 2026-05-06 09:35 | 48.58343 | 17.59369 | 12475 ft | 358 kts | 139° |
| 2026-05-06 09:35 | 48.56540 | 17.62021 | 12282 ft | 364 kts | 143° |
| 2026-05-06 09:35 | 48.54385 | 17.63941 | 12066 ft | 357 kts | 162° |
| 2026-05-06 09:35 | 48.52061 | 17.65196 | 11886 ft | 354 kts | 164° |
| 2026-05-06 09:36 | 48.49727 | 17.66393 | 11677 ft | 354 kts | 164° |
| 2026-05-06 09:36 | 48.47403 | 17.67583 | 11484 ft | 354 kts | 164° |
| 2026-05-06 09:36 | 48.45074 | 17.68788 | 11279 ft | 353 kts | 163° |
| 2026-05-06 09:36 | 48.42760 | 17.69993 | 11088 ft | 352 kts | 163° |
| 2026-05-06 09:37 | 48.40451 | 17.71208 | 10884 ft | 347 kts | 163° |
| 2026-05-06 09:37 | 48.38251 | 17.72378 | 10689 ft | 335 kts | 163° |
| 2026-05-06 09:37 | 48.36078 | 17.73525 | 10508 ft | 326 kts | 163° |
| 2026-05-06 09:37 | 48.33945 | 17.74650 | 10322 ft | 316 kts | 163° |
| 2026-05-06 09:38 | 48.31929 | 17.75713 | 10156 ft | 308 kts | 162° |
| 2026-05-06 09:38 | 48.29907 | 17.76782 | 9987 ft | 299 kts | 162° |
| 2026-05-06 09:38 | 48.27916 | 17.77369 | 9840 ft | 286 kts | 184° |
| 2026-05-06 09:38 | 48.26064 | 17.76774 | 9812 ft | 271 kts | 202° |
| 2026-05-06 09:39 | 48.24467 | 17.75321 | 9563 ft | 266 kts | 219° |
| 2026-05-06 09:39 | 48.23122 | 17.73454 | 9413 ft | 263 kts | 223° |
| 2026-05-06 09:39 | 48.21819 | 17.71523 | 9258 ft | 264 kts | 224° |
| 2026-05-06 09:39 | 48.20507 | 17.69582 | 9106 ft | 265 kts | 223° |
| 2026-05-06 09:40 | 48.19309 | 17.67495 | 8918 ft | 267 kts | 240° |
| 2026-05-06 09:40 | 48.18791 | 17.64830 | 8796 ft | 271 kts | 265° |
| 2026-05-06 09:40 | 48.20189 | 17.59656 | 8506 ft | 280 kts | 310° |
| 2026-05-06 09:41 | 48.21549 | 17.57551 | 8355 ft | 282 kts | 312° |
| 2026-05-06 09:41 | 48.22930 | 17.55453 | 8183 ft | 282 kts | 309° |
| 2026-05-06 09:41 | 48.23877 | 17.52941 | 8012 ft | 277 kts | 281° |
| 2026-05-06 09:41 | 48.23902 | 17.50117 | 7859 ft | 269 kts | 253° |
| 2026-05-06 09:42 | 48.23156 | 17.47601 | 7715 ft | 263 kts | 232° |
| 2026-05-06 09:42 | 48.21946 | 17.45570 | 7567 ft | 261 kts | 223° |
| 2026-05-06 09:42 | 48.20631 | 17.43700 | 7424 ft | 261 kts | 221° |
| 2026-05-06 09:42 | 48.19225 | 17.42000 | 7263 ft | 259 kts | 205° |
| 2026-05-06 09:43 | 48.17500 | 17.41327 | 7127 ft | 258 kts | 180° |
| 2026-05-06 09:43 | 48.15746 | 17.41828 | 6993 ft | 259 kts | 157° |
| 2026-05-06 09:43 | 48.14267 | 17.43364 | 6846 ft | 261 kts | 136° |
| 2026-05-06 09:43 | 48.13008 | 17.45325 | 6691 ft | 262 kts | 135° |
| 2026-05-06 09:44 | 48.11752 | 17.47298 | 6545 ft | 262 kts | 135° |
| 2026-05-06 09:44 | 48.10488 | 17.49268 | 6406 ft | 262 kts | 135° |
| 2026-05-06 09:44 | 48.09227 | 17.51223 | 6253 ft | 261 kts | 135° |
| 2026-05-06 09:44 | 48.07959 | 17.53176 | 6142 ft | 260 kts | 135° |
| 2026-05-06 09:45 | 48.06717 | 17.55085 | 5881 ft | 260 kts | 135° |
| 2026-05-06 09:45 | 48.05449 | 17.57030 | 5605 ft | 257 kts | 135° |
| 2026-05-06 09:45 | 48.04199 | 17.58946 | 5323 ft | 256 kts | 135° |
| 2026-05-06 09:45 | 48.02975 | 17.60826 | 5049 ft | 255 kts | 135° |
| 2026-05-06 09:46 | 48.01648 | 17.62547 | 4734 ft | 253 kts | 154° |
| 2026-05-06 09:46 | 47.99927 | 17.62977 | 4479 ft | 249 kts | 187° |
| 2026-05-06 09:46 | 47.98340 | 17.62084 | 4239 ft | 249 kts | 213° |
| 2026-05-06 09:46 | 47.97186 | 17.60283 | 4246 ft | 238 kts | 237° |
| 2026-05-06 09:47 | 47.96697 | 17.58010 | 4251 ft | 225 kts | 263° |
| 2026-05-06 09:47 | 47.96859 | 17.55713 | 4257 ft | 225 kts | 284° |
| 2026-05-06 09:47 | 47.97566 | 17.53628 | 4265 ft | 226 kts | 301° |
| 2026-05-06 09:47 | 47.98442 | 17.51802 | 4291 ft | 226 kts | 303° |
| 2026-05-06 09:48 | 47.99421 | 17.49858 | 4287 ft | 218 kts | 303° |
| 2026-05-06 09:48 | 48.00301 | 17.48111 | 4251 ft | 203 kts | 303° |
| 2026-05-06 09:48 | 48.01140 | 17.46421 | 4246 ft | 202 kts | 302° |
| 2026-05-06 09:48 | 48.02019 | 17.44772 | 4218 ft | 203 kts | 307° |
| 2026-05-06 09:49 | 48.02967 | 17.43198 | 4028 ft | 206 kts | 309° |
| 2026-05-06 09:49 | 48.03951 | 17.41648 | 3773 ft | 204 kts | 310° |
| 2026-05-06 09:49 | 48.04931 | 17.40112 | 3482 ft | 203 kts | 310° |
| 2026-05-06 09:49 | 48.05894 | 17.38607 | 3229 ft | 198 kts | 310° |
| 2026-05-06 09:50 | 48.06825 | 17.37156 | 2984 ft | 187 kts | 310° |
| 2026-05-06 09:50 | 48.07708 | 17.35779 | 2708 ft | 180 kts | 310° |
| 2026-05-06 09:50 | 48.08554 | 17.34457 | 2484 ft | 173 kts | 310° |
| 2026-05-06 09:50 | 48.09384 | 17.33160 | 2292 ft | 172 kts | 311° |
| 2026-05-06 09:51 | 48.10217 | 17.31863 | 2043 ft | 174 kts | 311° |
| 2026-05-06 09:51 | 48.11047 | 17.30571 | 1797 ft | 171 kts | 312° |
| 2026-05-06 09:51 | 48.11865 | 17.29289 | 1569 ft | 170 kts | 313° |
| 2026-05-06 09:51 | 48.12683 | 17.28010 | 1363 ft | 171 kts | 313° |
| 2026-05-06 09:52 | 48.13474 | 17.26779 | 1158 ft | 156 kts | 310° |
| 2026-05-06 09:52 | 48.14190 | 17.25617 | 921 ft | 149 kts | 311° |
| 2026-05-06 09:52 | 48.14886 | 17.24509 | 753 ft | 147 kts | 310° |
| 2026-05-06 09:52 | 48.15627 | 17.23403 | 574 ft | 153 kts | 311° |
| 2026-05-06 09:53 | 48.16339 | 17.22285 | 431 ft | 139 kts | 312° |
| 2026-05-06 09:53 | 48.16922 | 17.21431 | 442 ft | 95 kts | 317° |
| 2026-05-06 09:53 | 48.17263 | 17.20870 | 441 ft | 50 kts | 300° |
| 2026-05-06 09:53 | 48.17505 | 17.20526 | 441 ft | 43 kts | 319° |
| 2026-05-06 09:54 | 48.17511 | 17.20346 | 440 ft | 19 kts | 226° |
| 2026-05-06 09:54 | 48.17398 | 17.20339 | 441 ft | 18 kts | 142° |
| 2026-05-06 09:54 | 48.17293 | 17.20434 | 441 ft | 17 kts | 159° |
| 2026-05-06 09:54 | 48.17182 | 17.20495 | 441 ft | 17 kts | 169° |
| 2026-05-06 09:55 | 48.17077 | 17.20449 | 441 ft | 16 kts | 221° |
| 2026-05-06 09:55 | 48.16998 | 17.20338 | 442 ft | 15 kts | 224° |
| 2026-05-06 09:55 | 48.16921 | 17.20229 | 442 ft | 15 kts | 224° |
| 2026-05-06 09:55 | 48.16887 | 17.20171 | 442 ft | 1 kts | 256° |
| 2026-05-06 09:56 | 48.16896 | 17.20144 | 442 ft | 8 kts | 305° |
| 2026-05-06 09:56 | 48.16919 | 17.20105 | 442 ft | 0 kts | 315° |